ΕΜΥ, Εθνική Μετεωρολογική Υπηρεσία - Δελτία Καιρού, Προγνώσεις

ΑΕΡΟΝΑΥΤΙΛΙΑ

GREEK AIRPORTS CODES

TAF LGMT 230200Z 2303/2312 02012KT 9999 FEW012 BKN025 PROB30 TEMPO 2303/2312 5000 SNRA SCT010 BKN020 BKN040 TEMPO 2303/2309 02012G22KT=

EUROPEAN AIRPORTS CODES

EPWA 230230Z 31010KT 9999 SCT018 BKN043 M01/M04 Q1025 NOSIG=